Siloam, Texas
Current Conditions -  °F | °C
As of 9:55 AM on Friday 24 Oct 2014 (Local Time) from KOSA Reporting Station
Clear Clear  
Wind Chill: 60°   Ceiling: Unl
Heat Index: 60°   Visibility: 10mi
Dew Point: 55°   Wind: 0mph
Humidity: 84%   Direction: NA
Pressure: 30.21"   Gusts: NA
Location:  33.4703°N, 94.6281°W
Report Text: KOSA 241455Z AUTO 00000KT 10SM CLR 16/13 A3021 RMK AO1 T01560129
Loading
Personal Weather Stations






























Interactive Weather Map
Tropical Storm Tracking
New forecast layout! Learn more

10-Day Weather Forecast

Advertisements
Track Severe Weather on mobile